Time;durP1;ratioP1;P1;durP2;ratioP2;P2;SDS_P1;SDS_P2;PMS_P1;PMS_P2;Temp;Humidity;BMP_temperature;BMP_pressure;BME280_temperature;BME280_humidity;BME280_pressure;Samples;Min_cycle;Max_cycle;Signal;HPM_P1;HPM_P2
2022/03/16 00:00:15;;;;;;;15.53;9.03;;;;;;;;;;4996309;28;20478;-81
2022/03/16 00:02:41;;;;;;;18.05;9.20;;;;;;;;;;4993319;28;20121;-82
2022/03/16 00:05:07;;;;;;;15.38;9.20;;;;;;;;;;4986176;28;20137;-82
2022/03/16 00:07:32;;;;;;;16.75;8.60;;;;;;;;;;4993553;28;20030;-81
2022/03/16 00:09:57;;;;;;;16.75;8.68;;;;;;;;;;5006738;28;20049;-82
2022/03/16 00:12:23;;;;;;;17.20;8.88;;;;;;;;;;4991712;28;20081;-82
2022/03/16 00:14:48;;;;;;;13.73;8.48;;;;;;;;;;4991281;28;20517;-82
2022/03/16 00:17:13;;;;;;;16.58;8.45;;;;;;;;;;5009227;28;20053;-81
2022/03/16 00:19:40;;;;;;;14.80;8.70;;;;;;;;;;4993467;28;20095;-81
2022/03/16 00:22:06;;;;;;;17.38;8.77;;;;;;;;;;5009503;28;20423;-80
2022/03/16 00:24:32;;;;;;;14.93;8.80;;;;;;;;;;4994584;28;20038;-81
2022/03/16 00:26:57;;;;;;;14.77;9.05;;;;;;;;;;4990630;28;20160;-81
2022/03/16 00:29:22;;;;;;;17.75;9.50;;;;;;;;;;4995699;28;20033;-82
2022/03/16 00:31:48;;;;;;;19.38;9.32;;;;;;;;;;4988723;28;20042;-83
2022/03/16 00:34:14;;;;;;;16.98;10.27;;;;;;;;;;4990853;28;20518;-82
2022/03/16 00:36:39;;;;;;;15.45;9.65;;;;;;;;;;4990562;28;20037;-81
2022/03/16 00:39:05;;;;;;;15.38;9.68;;;;;;;;;;4998791;28;20096;-83
2022/03/16 00:41:31;;;;;;;17.70;9.90;;;;;;;;;;4991367;28;20408;-83
2022/03/16 00:43:56;;;;;;;18.52;10.55;;;;;;;;;;5008847;28;20045;-83
2022/03/16 00:46:21;;;;;;;17.10;10.38;;;;;;;;;;5006715;28;20080;-83
2022/03/16 00:48:47;;;;;;;19.48;10.40;;;;;;;;;;4991404;28;20413;-83
2022/03/16 00:51:12;;;;;;;19.45;10.52;;;;;;;;;;5006411;28;20037;-83
2022/03/16 00:53:39;;;;;;;18.13;10.23;;;;;;;;;;4990279;28;20034;-83
2022/03/16 00:56:06;;;;;;;18.80;10.77;;;;;;;;;;5008483;28;20397;-83
2022/03/16 00:58:31;;;;;;;19.58;11.00;;;;;;;;;;4985929;28;20501;-83
2022/03/16 01:00:58;;;;;;;17.25;10.43;;;;;;;;;;4992050;28;20034;-81
2022/03/16 01:03:23;;;;;;;18.92;11.05;;;;;;;;;;4993722;28;20041;-83
2022/03/16 01:05:48;;;;;;;22.73;11.02;;;;;;;;;;5007572;28;20037;-82
2022/03/16 01:08:14;;;;;;;20.73;11.73;;;;;;;;;;5004597;28;20555;-83
2022/03/16 01:10:39;;;;;;;18.52;11.75;;;;;;;;;;4988560;28;20034;-83
2022/03/16 01:13:05;;;;;;;18.08;11.85;;;;;;;;;;4991389;28;20076;-83
2022/03/16 01:15:30;;;;;;;18.85;11.55;;;;;;;;;;4991935;28;20030;-82
2022/03/16 01:17:56;;;;;;;21.05;11.15;;;;;;;;;;5008060;28;20045;-81
2022/03/16 01:20:21;;;;;;;18.75;11.75;;;;;;;;;;5009906;28;20042;-82
2022/03/16 01:22:47;;;;;;;23.38;12.40;;;;;;;;;;4993687;28;20033;-82
2022/03/16 01:25:12;;;;;;;20.23;11.90;;;;;;;;;;4994678;28;20076;-82
2022/03/16 01:27:37;;;;;;;20.25;11.80;;;;;;;;;;5009656;28;20037;-82
2022/03/16 01:30:04;;;;;;;23.20;12.90;;;;;;;;;;4995995;28;20045;-82
2022/03/16 01:32:30;;;;;;;22.35;12.95;;;;;;;;;;4994908;28;20038;-81
2022/03/16 01:34:55;;;;;;;22.75;12.40;;;;;;;;;;4991888;28;20581;-81
2022/03/16 01:37:21;;;;;;;23.50;12.60;;;;;;;;;;4993563;28;20124;-82
2022/03/16 01:39:46;;;;;;;22.08;12.35;;;;;;;;;;4994609;28;20033;-82
2022/03/16 01:42:11;;;;;;;21.27;13.07;;;;;;;;;;4990080;28;20048;-82
2022/03/16 01:44:47;;;;;;;22.85;12.68;;;;;;;;;;4992959;28;20041;-82
2022/03/16 01:47:14;;;;;;;21.33;12.48;;;;;;;;;;5011522;28;20041;-82
2022/03/16 01:49:40;;;;;;;23.38;13.30;;;;;;;;;;4993987;28;20043;-83
2022/03/16 01:52:06;;;;;;;25.92;14.32;;;;;;;;;;4994701;28;20485;-82
2022/03/16 01:54:31;;;;;;;22.08;13.10;;;;;;;;;;4994481;28;20048;-82
2022/03/16 01:56:57;;;;;;;22.77;12.70;;;;;;;;;;4994861;28;20042;-82
2022/03/16 01:59:22;;;;;;;22.17;14.05;;;;;;;;;;4994883;28;20030;-82
2022/03/16 02:01:47;;;;;;;22.25;13.50;;;;;;;;;;4992158;28;20037;-82
2022/03/16 02:04:12;;;;;;;21.20;13.10;;;;;;;;;;4995347;28;20040;-82
2022/03/16 02:06:38;;;;;;;24.08;14.18;;;;;;;;;;5006948;28;20488;-83
2022/03/16 02:09:03;;;;;;;24.88;13.98;;;;;;;;;;5010282;28;20100;-82
2022/03/16 02:11:29;;;;;;;23.15;14.15;;;;;;;;;;4994597;28;20048;-82
2022/03/16 02:13:54;;;;;;;25.65;13.70;;;;;;;;;;4993785;28;20517;-82
2022/03/16 02:16:19;;;;;;;24.05;13.43;;;;;;;;;;4993628;28;20133;-82
2022/03/16 02:18:45;;;;;;;22.77;14.50;;;;;;;;;;4993780;28;20038;-82
2022/03/16 02:21:12;;;;;;;22.48;14.18;;;;;;;;;;5011823;28;20033;-82
2022/03/16 02:23:38;;;;;;;23.70;14.43;;;;;;;;;;4995454;28;20026;-83
2022/03/16 02:26:03;;;;;;;24.05;14.68;;;;;;;;;;4990660;28;20076;-82
2022/03/16 02:28:28;;;;;;;23.13;14.35;;;;;;;;;;4992711;28;20116;-82
2022/03/16 02:30:54;;;;;;;24.20;14.50;;;;;;;;;;4991859;28;20045;-82
2022/03/16 02:33:19;;;;;;;27.73;14.73;;;;;;;;;;5000156;28;20044;-81
2022/03/16 02:35:45;;;;;;;26.17;14.30;;;;;;;;;;4991979;28;20073;-81
2022/03/16 02:38:11;;;;;;;26.73;14.77;;;;;;;;;;4997211;28;20030;-81
2022/03/16 02:40:36;;;;;;;20.63;14.25;;;;;;;;;;4995650;28;20820;-82
2022/03/16 02:43:02;;;;;;;27.15;15.20;;;;;;;;;;4995743;28;20053;-82
2022/03/16 02:45:27;;;;;;;22.65;14.10;;;;;;;;;;5008380;28;20038;-80
2022/03/16 02:47:53;;;;;;;27.60;15.55;;;;;;;;;;4994272;28;20045;-81
2022/03/16 02:50:18;;;;;;;24.33;14.50;;;;;;;;;;5011719;28;20038;-82
2022/03/16 02:52:44;;;;;;;27.50;15.15;;;;;;;;;;4993735;28;20136;-82
2022/03/16 02:55:10;;;;;;;23.88;14.93;;;;;;;;;;5008626;28;20421;-82
2022/03/16 02:57:36;;;;;;;26.65;15.30;;;;;;;;;;4995578;28;20088;-82
2022/03/16 03:00:07;;;;;;;26.45;14.40;;;;;;;;;;5008217;28;20040;-81
2022/03/16 03:02:32;;;;;;;27.83;15.85;;;;;;;;;;5026338;28;20041;-82
2022/03/16 03:04:58;;;;;;;26.30;14.55;;;;;;;;;;4992998;28;20489;-81
2022/03/16 03:07:23;;;;;;;27.23;15.02;;;;;;;;;;5009852;28;20069;-82
2022/03/16 03:09:48;;;;;;;27.27;14.93;;;;;;;;;;5011393;28;20037;-81
2022/03/16 03:12:14;;;;;;;25.98;14.75;;;;;;;;;;4998621;28;20044;-81
2022/03/16 03:14:39;;;;;;;25.35;14.82;;;;;;;;;;4994020;28;20585;-82
2022/03/16 03:17:05;;;;;;;24.95;13.80;;;;;;;;;;4991045;28;20520;-81
2022/03/16 03:19:30;;;;;;;28.92;15.45;;;;;;;;;;4999128;28;20038;-81
2022/03/16 03:21:55;;;;;;;22.15;14.23;;;;;;;;;;4990027;28;20037;-81
2022/03/16 03:24:21;;;;;;;26.45;13.40;;;;;;;;;;4992913;28;20056;-81
2022/03/16 03:26:46;;;;;;;28.00;14.63;;;;;;;;;;4994876;28;20034;-81
2022/03/16 03:29:13;;;;;;;23.27;13.68;;;;;;;;;;4994644;28;20674;-81
2022/03/16 03:31:38;;;;;;;25.75;14.70;;;;;;;;;;5007155;28;20505;-82
2022/03/16 03:34:04;;;;;;;22.23;13.55;;;;;;;;;;4994465;28;20048;-81
2022/03/16 03:36:29;;;;;;;20.35;12.98;;;;;;;;;;4993972;28;20452;-81
2022/03/16 03:38:55;;;;;;;26.17;13.23;;;;;;;;;;4992474;28;20496;-81
2022/03/16 03:41:20;;;;;;;25.33;14.25;;;;;;;;;;4991876;28;20038;-82
2022/03/16 03:43:46;;;;;;;22.75;12.70;;;;;;;;;;4987862;28;20041;-81
2022/03/16 03:46:11;;;;;;;22.20;13.75;;;;;;;;;;4993721;28;20045;-81
2022/03/16 03:48:36;;;;;;;21.45;12.80;;;;;;;;;;4998110;28;20041;-83
2022/03/16 03:51:02;;;;;;;25.23;13.45;;;;;;;;;;4991757;28;20041;-82
2022/03/16 03:53:27;;;;;;;22.77;12.77;;;;;;;;;;4990169;28;20494;-82
2022/03/16 03:55:52;;;;;;;20.88;12.55;;;;;;;;;;4992361;28;20463;-82
2022/03/16 03:58:18;;;;;;;23.83;13.32;;;;;;;;;;5009447;28;20037;-81
2022/03/16 04:00:43;;;;;;;25.58;13.32;;;;;;;;;;4997603;28;20091;-81
2022/03/16 04:03:09;;;;;;;19.92;12.80;;;;;;;;;;4983644;28;20499;-81
2022/03/16 04:05:34;;;;;;;20.95;12.93;;;;;;;;;;5008673;28;20129;-81
2022/03/16 04:07:59;;;;;;;27.25;13.82;;;;;;;;;;4990775;28;20452;-82
2022/03/16 04:10:25;;;;;;;22.75;13.23;;;;;;;;;;4993256;28;20037;-81
2022/03/16 04:12:50;;;;;;;25.50;13.55;;;;;;;;;;4991915;28;20516;-81
2022/03/16 04:15:18;;;;;;;22.55;12.93;;;;;;;;;;4996103;28;20045;-82
2022/03/16 04:17:43;;;;;;;21.75;13.05;;;;;;;;;;4989139;28;20038;-83
2022/03/16 04:20:08;;;;;;;24.13;13.88;;;;;;;;;;4981783;28;20080;-81
2022/03/16 04:22:34;;;;;;;25.70;14.50;;;;;;;;;;4992453;28;20042;-82
2022/03/16 04:24:59;;;;;;;26.05;14.00;;;;;;;;;;5007341;28;20068;-82
2022/03/16 04:27:24;;;;;;;26.83;14.13;;;;;;;;;;4995704;28;20041;-82
2022/03/16 04:29:50;;;;;;;26.25;14.85;;;;;;;;;;5006564;28;20042;-81
2022/03/16 04:32:15;;;;;;;24.45;13.88;;;;;;;;;;5004837;28;20141;-81
2022/03/16 04:34:42;;;;;;;24.27;14.20;;;;;;;;;;4993030;28;20520;-82
2022/03/16 04:37:07;;;;;;;26.77;14.63;;;;;;;;;;5010249;28;20538;-81
2022/03/16 04:39:33;;;;;;;25.23;14.57;;;;;;;;;;5009094;28;20041;-82
2022/03/16 04:41:58;;;;;;;26.50;14.38;;;;;;;;;;5008474;28;20116;-82
2022/03/16 04:44:24;;;;;;;24.27;13.70;;;;;;;;;;4993933;28;20061;-82
2022/03/16 04:46:49;;;;;;;27.52;14.25;;;;;;;;;;4990949;28;20041;-82
2022/03/16 04:49:15;;;;;;;25.90;15.15;;;;;;;;;;5009395;28;20175;-81
2022/03/16 04:51:40;;;;;;;30.80;15.15;;;;;;;;;;4991704;28;20477;-82
2022/03/16 04:54:07;;;;;;;26.98;14.65;;;;;;;;;;5009655;28;20042;-82
2022/03/16 04:56:34;;;;;;;25.42;15.07;;;;;;;;;;4996537;28;20030;-83
2022/03/16 04:59:00;;;;;;;24.88;14.90;;;;;;;;;;4995735;28;20041;-82
2022/03/16 05:01:25;;;;;;;27.58;15.48;;;;;;;;;;4995967;28;20444;-82
2022/03/16 05:03:50;;;;;;;27.48;15.18;;;;;;;;;;4991130;28;20043;-82
2022/03/16 05:06:16;;;;;;;29.35;15.88;;;;;;;;;;5010297;28;20065;-82
2022/03/16 05:08:41;;;;;;;29.40;15.23;;;;;;;;;;4991425;28;20048;-81
2022/03/16 05:11:06;;;;;;;28.88;15.13;;;;;;;;;;5008706;28;20034;-81
2022/03/16 05:13:32;;;;;;;25.05;14.77;;;;;;;;;;4993897;28;20460;-81
2022/03/16 05:15:57;;;;;;;23.48;14.50;;;;;;;;;;4997153;28;20505;-81
2022/03/16 05:18:26;;;;;;;24.40;14.63;;;;;;;;;;4994188;28;20041;-81
2022/03/16 05:20:52;;;;;;;26.30;15.55;;;;;;;;;;4997133;28;20043;-81
2022/03/16 05:23:17;;;;;;;31.15;16.50;;;;;;;;;;4995647;28;20033;-82
2022/03/16 05:25:42;;;;;;;25.02;15.32;;;;;;;;;;5008726;28;20103;-82
2022/03/16 05:28:07;;;;;;;27.55;14.93;;;;;;;;;;4997506;28;20615;-81
2022/03/16 05:30:35;;;;;;;31.55;15.63;;;;;;;;;;4992777;28;20083;-81
2022/03/16 05:33:01;;;;;;;26.83;15.10;;;;;;;;;;5009607;28;20037;-82
2022/03/16 05:35:28;;;;;;;25.90;15.30;;;;;;;;;;4995086;28;20405;-82
2022/03/16 05:37:53;;;;;;;25.05;15.20;;;;;;;;;;4995586;28;20045;-82
2022/03/16 05:40:19;;;;;;;29.35;15.75;;;;;;;;;;4987818;28;20034;-83
2022/03/16 05:42:45;;;;;;;28.20;15.43;;;;;;;;;;5004544;28;20037;-83
2022/03/16 05:45:11;;;;;;;29.17;15.82;;;;;;;;;;5006953;28;20042;-83
2022/03/16 05:47:36;;;;;;;31.38;15.50;;;;;;;;;;5009504;28;20030;-83
2022/03/16 05:50:03;;;;;;;24.88;15.20;;;;;;;;;;4995732;28;20038;-82
2022/03/16 05:52:29;;;;;;;31.10;16.10;;;;;;;;;;4996442;28;20121;-83
2022/03/16 05:54:56;;;;;;;29.17;16.25;;;;;;;;;;4994697;28;20075;-82
2022/03/16 05:57:22;;;;;;;26.67;16.02;;;;;;;;;;4994694;28;25120;-81
2022/03/16 05:59:48;;;;;;;27.55;15.93;;;;;;;;;;4985385;28;20036;-81
2022/03/16 06:02:13;;;;;;;25.33;16.00;;;;;;;;;;4995823;28;20046;-81
2022/03/16 06:04:40;;;;;;;30.08;15.43;;;;;;;;;;4992311;28;20064;-81
2022/03/16 06:07:06;;;;;;;29.60;16.90;;;;;;;;;;4994498;28;20045;-81
2022/03/16 06:09:32;;;;;;;27.73;16.13;;;;;;;;;;4993823;28;20450;-81
2022/03/16 06:11:58;;;;;;;28.67;16.48;;;;;;;;;;4998090;28;20045;-83
2022/03/16 06:14:23;;;;;;;28.02;16.65;;;;;;;;;;4995535;28;20143;-83
2022/03/16 06:16:48;;;;;;;32.63;16.92;;;;;;;;;;4994180;28;20034;-82
2022/03/16 06:19:14;;;;;;;28.55;17.13;;;;;;;;;;4992682;28;20049;-83
2022/03/16 06:21:39;;;;;;;31.92;17.17;;;;;;;;;;4994834;28;20061;-82
2022/03/16 06:24:05;;;;;;;30.48;17.67;;;;;;;;;;4994699;28;20124;-81
2022/03/16 06:26:31;;;;;;;32.30;17.55;;;;;;;;;;4998214;28;20030;-82
2022/03/16 06:28:56;;;;;;;34.20;18.63;;;;;;;;;;4997582;28;20835;-82
2022/03/16 06:31:22;;;;;;;32.55;18.42;;;;;;;;;;4984338;28;20540;-82
2022/03/16 06:33:47;;;;;;;29.35;17.70;;;;;;;;;;4990600;28;20033;-82
2022/03/16 06:36:13;;;;;;;31.40;18.48;;;;;;;;;;4993961;28;20038;-82
2022/03/16 06:38:38;;;;;;;31.20;18.77;;;;;;;;;;4980585;28;20049;-83
2022/03/16 06:41:04;;;;;;;32.83;19.77;;;;;;;;;;4984451;28;20507;-82
2022/03/16 06:43:30;;;;;;;32.75;19.25;;;;;;;;;;4991660;28;20041;-80
2022/03/16 06:45:55;;;;;;;33.58;20.10;;;;;;;;;;4994889;28;20588;-81
2022/03/16 06:48:23;;;;;;;32.53;18.80;;;;;;;;;;4988398;28;20127;-82
2022/03/16 06:50:49;;;;;;;32.63;19.30;;;;;;;;;;4994558;28;20034;-83
2022/03/16 06:53:14;;;;;;;32.50;19.20;;;;;;;;;;4998704;28;20416;-80
2022/03/16 06:55:39;;;;;;;34.85;19.45;;;;;;;;;;4987512;28;20042;-80
2022/03/16 06:58:05;;;;;;;32.80;18.90;;;;;;;;;;4992093;28;20073;-79
2022/03/16 07:00:33;;;;;;;36.88;20.35;;;;;;;;;;4995410;28;20041;-82
2022/03/16 07:03:00;;;;;;;37.65;20.13;;;;;;;;;;4992739;28;20057;-83
2022/03/16 07:05:33;;;;;;;32.95;20.50;;;;;;;;;;4985401;28;20041;-82
2022/03/16 07:08:01;;;;;;;36.25;19.63;;;;;;;;;;4993397;28;20052;-82
2022/03/16 07:10:27;;;;;;;33.63;19.10;;;;;;;;;;4993260;28;20037;-81
2022/03/16 07:12:53;;;;;;;35.35;19.45;;;;;;;;;;4995616;28;20109;-83
2022/03/16 07:15:18;;;;;;;34.05;19.70;;;;;;;;;;4990935;28;20115;-82
2022/03/16 07:17:44;;;;;;;31.08;19.33;;;;;;;;;;4995828;28;20033;-85
2022/03/16 07:20:10;;;;;;;32.05;19.10;;;;;;;;;;4992296;28;20665;-84
2022/03/16 07:22:35;;;;;;;29.98;17.95;;;;;;;;;;4999126;28;20034;-84
2022/03/16 07:25:08;;;;;;;30.65;18.00;;;;;;;;;;4992477;28;20129;-84
2022/03/16 07:27:33;;;;;;;31.42;18.42;;;;;;;;;;4991970;28;20033;-84
2022/03/16 07:29:58;;;;;;;28.95;18.38;;;;;;;;;;4996023;28;20033;-83
2022/03/16 07:32:24;;;;;;;28.02;17.05;;;;;;;;;;4993024;28;20058;-84
2022/03/16 07:34:49;;;;;;;26.88;16.50;;;;;;;;;;4983821;28;20121;-83
2022/03/16 07:37:14;;;;;;;25.88;16.23;;;;;;;;;;4993810;28;20081;-83
2022/03/16 07:39:40;;;;;;;27.63;15.88;;;;;;;;;;4996424;28;20045;-83
2022/03/16 07:42:06;;;;;;;23.85;14.25;;;;;;;;;;4992859;28;20045;-82
2022/03/16 07:44:32;;;;;;;26.23;14.57;;;;;;;;;;5006285;28;20041;-82
2022/03/16 07:46:57;;;;;;;26.92;15.35;;;;;;;;;;5001630;28;20420;-84
2022/03/16 07:49:23;;;;;;;23.02;14.18;;;;;;;;;;4997515;28;20045;-84
2022/03/16 07:51:50;;;;;;;24.38;14.40;;;;;;;;;;5566995;23;21372;-83
2022/03/16 07:54:15;;;;;;;26.23;13.98;;;;;;;;;;5006287;28;20068;-84
2022/03/16 07:56:41;;;;;;;19.90;13.70;;;;;;;;;;4997405;28;20061;-84
2022/03/16 07:59:06;;;;;;;23.92;13.35;;;;;;;;;;5005062;28;20574;-83
2022/03/16 08:01:32;;;;;;;26.58;13.95;;;;;;;;;;4995124;28;20389;-82
2022/03/16 08:03:57;;;;;;;21.42;13.70;;;;;;;;;;4997627;28;20038;-83
2022/03/16 08:06:22;;;;;;;23.92;13.93;;;;;;;;;;5005914;28;20034;-87
2022/03/16 08:08:48;;;;;;;23.33;12.90;;;;;;;;;;5005255;28;20041;-83
2022/03/16 08:11:13;;;;;;;22.55;13.57;;;;;;;;;;4999655;28;20026;-84
2022/03/16 08:13:38;;;;;;;22.55;13.82;;;;;;;;;;5012735;28;20523;-83
2022/03/16 08:16:04;;;;;;;20.70;12.95;;;;;;;;;;4999255;28;20374;-82
2022/03/16 08:18:29;;;;;;;24.02;13.25;;;;;;;;;;5006311;28;20452;-83
2022/03/16 08:20:56;;;;;;;20.02;13.30;;;;;;;;;;5014070;28;20112;-83
2022/03/16 08:23:21;;;;;;;21.40;12.73;;;;;;;;;;5004131;28;20091;-82
2022/03/16 08:25:47;;;;;;;19.65;12.98;;;;;;;;;;5004545;28;20033;-82
2022/03/16 08:28:12;;;;;;;19.60;13.27;;;;;;;;;;5000914;28;20086;-83
2022/03/16 08:30:37;;;;;;;23.48;13.95;;;;;;;;;;5002856;28;20038;-83
2022/03/16 08:33:03;;;;;;;19.20;12.30;;;;;;;;;;5016997;28;20044;-81
2022/03/16 08:35:28;;;;;;;21.88;13.25;;;;;;;;;;5015264;28;20064;-83
2022/03/16 08:37:54;;;;;;;22.17;13.15;;;;;;;;;;5005666;28;20125;-84
2022/03/16 08:40:20;;;;;;;19.85;13.60;;;;;;;;;;4999409;28;20033;-84
2022/03/16 08:42:45;;;;;;;19.05;13.40;;;;;;;;;;5020779;28;20048;-85
2022/03/16 08:45:10;;;;;;;21.05;13.07;;;;;;;;;;4996327;28;20459;-82
2022/03/16 08:47:37;;;;;;;22.75;13.60;;;;;;;;;;5013419;28;20385;-83
2022/03/16 08:50:03;;;;;;;18.50;12.77;;;;;;;;;;4998257;28;20056;-83
2022/03/16 08:52:28;;;;;;;20.73;13.10;;;;;;;;;;4982956;28;20053;-83
2022/03/16 08:54:53;;;;;;;19.23;13.05;;;;;;;;;;4978444;28;20042;-83
2022/03/16 08:57:23;;;;;;;17.77;13.00;;;;;;;;;;4982961;28;20037;-84
2022/03/16 08:59:48;;;;;;;17.50;12.43;;;;;;;;;;4986879;28;20034;-84
2022/03/16 09:02:14;;;;;;;16.45;11.82;;;;;;;;;;5017586;28;20824;-85
2022/03/16 09:04:39;;;;;;;20.27;13.45;;;;;;;;;;4986699;28;20057;-85
2022/03/16 09:07:05;;;;;;;19.63;12.65;;;;;;;;;;4995548;28;20160;-84
2022/03/16 09:09:30;;;;;;;19.10;12.27;;;;;;;;;;4982321;28;20516;-84
2022/03/16 09:11:56;;;;;;;15.65;11.90;;;;;;;;;;4985680;28;20097;-84
2022/03/16 09:14:21;;;;;;;16.17;11.90;;;;;;;;;;5019032;28;20089;-84
2022/03/16 09:16:47;;;;;;;14.98;11.70;;;;;;;;;;4996681;28;20037;-84
2022/03/16 09:19:15;;;;;;;14.35;11.43;;;;;;;;;;4980635;28;20065;-84
2022/03/16 09:21:44;;;;;;;18.13;12.35;;;;;;;;;;4999069;28;20038;-83
2022/03/16 09:24:10;;;;;;;18.70;12.93;;;;;;;;;;4985088;28;20043;-84
2022/03/16 09:26:35;;;;;;;18.10;13.02;;;;;;;;;;4980683;28;20061;-84
2022/03/16 09:29:01;;;;;;;20.60;12.77;;;;;;;;;;4980319;28;20497;-83
2022/03/16 09:31:26;;;;;;;18.67;13.40;;;;;;;;;;4996975;28;20069;-85
2022/03/16 09:33:51;;;;;;;18.35;14.27;;;;;;;;;;4994525;28;20045;-83
2022/03/16 09:36:19;;;;;;;19.63;13.60;;;;;;;;;;4980524;28;21179;-84
2022/03/16 09:38:45;;;;;;;18.60;14.00;;;;;;;;;;4997928;28;20115;-83
2022/03/16 09:41:10;;;;;;;18.45;14.70;;;;;;;;;;4998432;28;20042;-83
2022/03/16 09:43:36;;;;;;;19.52;15.13;;;;;;;;;;5001553;28;20042;-83
2022/03/16 09:46:04;;;;;;;20.52;14.95;;;;;;;;;;4999765;28;20126;-86
2022/03/16 09:48:31;;;;;;;19.20;13.93;;;;;;;;;;4998117;28;20057;-84
2022/03/16 09:50:58;;;;;;;20.17;14.05;;;;;;;;;;4988483;28;20049;-84
2022/03/16 09:53:26;;;;;;;20.25;14.75;;;;;;;;;;4983290;28;20433;-83
2022/03/16 09:55:52;;;;;;;17.67;13.15;;;;;;;;;;5003110;28;20039;-83
2022/03/16 09:58:18;;;;;;;18.85;14.27;;;;;;;;;;4982316;28;20046;-82
2022/03/16 10:00:43;;;;;;;19.38;13.90;;;;;;;;;;4988697;28;20149;-82
2022/03/16 10:03:09;;;;;;;21.52;13.82;;;;;;;;;;4982543;28;20393;-81
2022/03/16 10:05:34;;;;;;;20.08;15.15;;;;;;;;;;5000879;28;20595;-82
2022/03/16 10:08:02;;;;;;;18.15;13.52;;;;;;;;;;5000026;28;20184;-83
2022/03/16 10:13:21;;;;;;;20.15;14.85;;;;;;;;;;4998129;28;20048;-82
2022/03/16 10:15:50;;;;;;;21.17;14.57;;;;;;;;;;4986856;28;20042;-84
2022/03/16 10:18:17;;;;;;;20.80;14.70;;;;;;;;;;4983273;28;20401;-82
2022/03/16 10:20:43;;;;;;;23.85;14.45;;;;;;;;;;5002718;28;20165;-84
2022/03/16 10:23:23;;;;;;;20.27;14.75;;;;;;;;;;4981859;28;20046;-84
2022/03/16 10:25:51;;;;;;;25.25;16.35;;;;;;;;;;5003734;28;20034;-82
2022/03/16 10:28:28;;;;;;;21.40;14.45;;;;;;;;;;5016086;28;20126;-86
2022/03/16 10:30:55;;;;;;;21.73;15.10;;;;;;;;;;4983038;28;20042;-83
2022/03/16 10:33:29;;;;;;;21.60;13.88;;;;;;;;;;4983701;28;20522;-82
2022/03/16 10:36:04;;;;;;;22.95;14.50;;;;;;;;;;4999521;28;20042;-83
2022/03/16 10:38:36;;;;;;;19.48;13.95;;;;;;;;;;4994661;28;20046;-84
2022/03/16 10:46:52;;;;;;;21.52;13.88;;;;;;;;;;4996373;28;20053;-84
2022/03/16 10:49:20;;;;;;;19.88;12.48;;;;;;;;;;4988968;28;20481;-83
2022/03/16 10:51:46;;;;;;;18.58;12.48;;;;;;;;;;4997393;28;20069;-84
2022/03/16 10:54:14;;;;;;;17.83;12.52;;;;;;;;;;4988724;28;20125;-87
2022/03/16 10:56:39;;;;;;;;;;;;;;;;;;4999583;28;20847;-83
2022/03/16 10:59:05;;;;;;;16.90;11.32;;;;;;;;;;4986571;28;19921;-83
2022/03/16 11:01:35;;;;;;;16.52;11.20;;;;;;;;;;4987520;28;20092;-83
2022/03/16 11:04:02;;;;;;;17.52;11.57;;;;;;;;;;5002665;28;20077;-82
2022/03/16 11:06:28;;;;;;;16.90;12.10;;;;;;;;;;4996238;28;20036;-82
2022/03/16 11:08:54;;;;;;;19.23;12.90;;;;;;;;;;4997592;28;20771;-83
2022/03/16 11:14:05;;;;;;;17.48;12.93;;;;;;;;;;5000372;28;20076;-82
2022/03/16 11:16:31;;;;;;;15.98;12.40;;;;;;;;;;5003923;28;20030;-84
2022/03/16 11:19:05;;;;;;;18.90;13.38;;;;;;;;;;5015796;28;20125;-83
2022/03/16 11:21:37;;;;;;;15.35;11.80;;;;;;;;;;4996240;28;20038;-82
2022/03/16 11:24:18;;;;;;;16.45;11.50;;;;;;;;;;4997228;28;20053;-82
2022/03/16 11:27:24;;;;;;;14.85;10.68;;;;;;;;;;4980444;28;20472;-82
2022/03/16 11:29:58;;;;;;;;;;;;;;;;;;5014134;28;20471;-82
2022/03/16 11:32:24;;;;;;;13.48;10.25;;;;;;;;;;5017595;28;19925;-83
2022/03/16 11:34:58;;;;;;;18.27;11.63;;;;;;;;;;4981619;28;20108;-83
2022/03/16 11:37:45;;;;;;;14.02;10.57;;;;;;;;;;4995853;28;20048;-83
2022/03/16 11:40:16;;;;;;;14.95;11.10;;;;;;;;;;4993661;28;20491;-84
2022/03/16 11:43:04;;;;;;;16.73;10.75;;;;;;;;;;4982939;28;20038;-83
2022/03/16 11:45:43;;;;;;;21.55;11.10;;;;;;;;;;4998430;28;20571;-85
2022/03/16 11:48:28;;;;;;;20.25;11.20;;;;;;;;;;4987107;28;20043;-84
2022/03/16 11:51:09;;;;;;;20.98;11.10;;;;;;;;;;5016936;28;20046;-84
2022/03/16 11:56:29;;;;;;;15.93;11.93;;;;;;;;;;4998538;28;20838;-85
2022/03/16 11:58:56;;;;;;;16.23;11.88;;;;;;;;;;5003770;28;20497;-81
2022/03/16 12:01:34;;;;;;;15.80;12.32;;;;;;;;;;4998980;28;20125;-84
2022/03/16 12:04:12;;;;;;;14.88;12.13;;;;;;;;;;4980950;28;20045;-82
2022/03/16 12:07:15;;;;;;;15.30;11.60;;;;;;;;;;4997470;28;20497;-85
2022/03/16 12:09:42;;;;;;;13.50;10.63;;;;;;;;;;4999261;28;20034;-85
2022/03/16 12:15:23;;;;;;;14.07;10.70;;;;;;;;;;4997026;28;20060;-82
2022/03/16 12:17:52;;;;;;;19.48;12.05;;;;;;;;;;5000813;28;20587;-84
2022/03/16 12:20:34;;;;;;;16.08;11.25;;;;;;;;;;4999911;28;20049;-81
2022/03/16 12:23:09;;;;;;;16.75;11.70;;;;;;;;;;5015160;28;20158;-86
2022/03/16 12:25:40;;;;;;;15.73;11.15;;;;;;;;;;4985797;28;20033;-81
2022/03/16 12:31:02;;;;;;;15.10;11.40;;;;;;;;;;4997761;28;20048;-86
2022/03/16 12:33:33;;;;;;;16.10;11.65;;;;;;;;;;4980148;28;20734;-87
2022/03/16 12:36:12;;;;;;;21.25;12.25;;;;;;;;;;4997429;28;20489;-84
2022/03/16 12:38:47;;;;;;;18.67;12.20;;;;;;;;;;5018289;28;20046;-83
2022/03/16 12:44:01;;;;;;;17.10;11.80;;;;;;;;;;5014314;28;20093;-83
2022/03/16 12:46:32;;;;;;;18.27;12.18;;;;;;;;;;4995427;28;20507;-83
2022/03/16 12:49:00;;;;;;;18.13;12.95;;;;;;;;;;5018892;28;20042;-83
2022/03/16 12:51:35;;;;;;;17.48;12.70;;;;;;;;;;5017041;28;20038;-82
2022/03/16 12:54:01;;;;;;;19.48;13.25;;;;;;;;;;5018598;28;20110;-82
2022/03/16 12:56:26;;;;;;;20.20;13.15;;;;;;;;;;4997204;28;20120;-81
2022/03/16 12:58:53;;;;;;;18.05;13.02;;;;;;;;;;4982536;28;20038;-83
2022/03/16 13:01:19;;;;;;;17.65;12.60;;;;;;;;;;4979394;28;20042;-84
2022/03/16 13:03:45;;;;;;;17.38;13.10;;;;;;;;;;4996268;28;20049;-84
2022/03/16 13:06:16;;;;;;;18.77;12.45;;;;;;;;;;4985262;28;20532;-83
2022/03/16 13:08:42;;;;;;;15.35;12.07;;;;;;;;;;5002043;28;20061;-85
2022/03/16 13:11:17;;;;;;;17.65;12.73;;;;;;;;;;4978297;28;20061;-83
2022/03/16 13:13:46;;;;;;;17.83;12.68;;;;;;;;;;4992030;28;20548;-81
2022/03/16 13:16:29;;;;;;;16.70;12.60;;;;;;;;;;4982903;28;20038;-82
2022/03/16 13:18:54;;;;;;;17.88;12.98;;;;;;;;;;4990489;28;20038;-83
2022/03/16 13:21:24;;;;;;;16.65;12.70;;;;;;;;;;4985549;28;20670;-84
2022/03/16 13:23:59;;;;;;;19.25;12.98;;;;;;;;;;4990184;28;20034;-83
2022/03/16 13:26:25;;;;;;;19.08;13.32;;;;;;;;;;4991081;28;20438;-84
2022/03/16 13:28:51;;;;;;;20.08;13.95;;;;;;;;;;4980062;28;20044;-82
2022/03/16 13:31:16;;;;;;;20.65;14.55;;;;;;;;;;5002641;28;20049;-83
2022/03/16 13:33:45;;;;;;;21.70;14.20;;;;;;;;;;4983815;28;20034;-83
2022/03/16 13:36:11;;;;;;;21.77;15.38;;;;;;;;;;4999767;28;20508;-82
2022/03/16 13:38:37;;;;;;;21.85;14.60;;;;;;;;;;5001257;28;20050;-85
2022/03/16 13:41:13;;;;;;;24.50;15.00;;;;;;;;;;5000358;28;20030;-84
2022/03/16 13:43:38;;;;;;;21.73;14.63;;;;;;;;;;5004656;28;20077;-87
2022/03/16 13:46:08;;;;;;;23.50;16.08;;;;;;;;;;4985611;28;20069;-84
2022/03/16 13:48:37;;;;;;;22.58;15.77;;;;;;;;;;4984415;28;20046;-84
2022/03/16 13:51:06;;;;;;;25.20;16.10;;;;;;;;;;5020186;28;20492;-86
2022/03/16 13:53:58;;;;;;;27.02;17.25;;;;;;;;;;4981624;28;20125;-83
2022/03/16 13:56:24;;;;;;;26.60;17.55;;;;;;;;;;4994262;28;20045;-87
2022/03/16 13:58:53;;;;;;;26.02;17.52;;;;;;;;;;5000904;28;20513;-83
2022/03/16 14:01:23;;;;;;;26.48;17.65;;;;;;;;;;4984052;28;20042;-83
2022/03/16 14:04:06;;;;;;;28.25;18.10;;;;;;;;;;4984189;28;20046;-82
2022/03/16 14:06:35;;;;;;;26.88;18.27;;;;;;;;;;4984446;28;20542;-82
2022/03/16 14:09:01;;;;;;;28.17;17.85;;;;;;;;;;5002692;28;20042;-82
2022/03/16 14:11:32;;;;;;;26.27;18.17;;;;;;;;;;5001740;28;20127;-81
2022/03/16 14:13:58;;;;;;;26.98;18.08;;;;;;;;;;5004208;28;20048;-82
2022/03/16 14:16:23;;;;;;;26.23;18.23;;;;;;;;;;5002454;28;20089;-82
2022/03/16 14:18:48;;;;;;;27.60;18.55;;;;;;;;;;4982323;28;20113;-83
2022/03/16 14:21:14;;;;;;;27.60;18.25;;;;;;;;;;4988838;28;20034;-82
2022/03/16 14:23:42;;;;;;;25.95;18.00;;;;;;;;;;4997202;28;20083;-82
2022/03/16 14:26:07;;;;;;;24.52;16.50;;;;;;;;;;4997024;28;20504;-82
2022/03/16 14:28:34;;;;;;;29.70;17.98;;;;;;;;;;4999996;28;20034;-86
2022/03/16 14:31:00;;;;;;;26.67;18.03;;;;;;;;;;4997462;28;20393;-85
2022/03/16 14:33:29;;;;;;;27.23;17.58;;;;;;;;;;4984925;28;20042;-85
2022/03/16 14:36:01;;;;;;;27.73;17.50;;;;;;;;;;5000508;28;20069;-85
2022/03/16 14:38:26;;;;;;;27.52;18.00;;;;;;;;;;4988115;28;20046;-86
2022/03/16 14:40:55;;;;;;;24.55;17.17;;;;;;;;;;4987534;28;20358;-87